createdAt,value
2023-03-26T00:02:14.578Z,94052.00
2023-03-26T00:06:14.511Z,94050.00
2023-03-26T00:10:14.485Z,94038.00
2023-03-26T00:14:14.429Z,94046.00
2023-03-26T00:18:14.413Z,94036.00
2023-03-26T00:22:14.390Z,94040.00
2023-03-26T00:26:14.366Z,94034.00
2023-03-26T00:30:14.305Z,94034.00
2023-03-26T00:34:14.284Z,94025.00
2023-03-26T00:38:14.268Z,94021.00
2023-03-26T00:42:14.308Z,94023.00
2023-03-26T00:46:14.399Z,94029.00
2023-03-26T00:50:14.404Z,94025.00
2023-03-26T00:54:14.369Z,94017.00
2023-03-26T00:58:14.355Z,94009.00
2023-03-26T01:02:14.312Z,94003.00
2023-03-26T01:06:14.274Z,93993.00
2023-03-26T01:10:14.213Z,93991.00
2023-03-26T01:14:14.185Z,94001.00
2023-03-26T01:18:14.166Z,94005.00
2023-03-26T01:22:14.114Z,94005.00
2023-03-26T01:26:14.057Z,94001.00
2023-03-26T01:30:14.011Z,93989.00
2023-03-26T01:34:14.008Z,93987.00
2023-03-26T01:38:13.960Z,93980.00
2023-03-26T01:42:13.919Z,93978.00
2023-03-26T01:46:13.926Z,93978.00
2023-03-26T01:50:13.829Z,93982.00
2023-03-26T01:54:13.779Z,93976.00
2023-03-26T01:58:13.736Z,93987.00
2023-03-26T02:02:13.800Z,93985.00
2023-03-26T02:06:13.836Z,93987.00
2023-03-26T02:10:13.870Z,93991.00
2023-03-26T02:14:13.933Z,93989.00
2023-03-26T02:18:13.893Z,93989.00
2023-03-26T02:22:13.869Z,93987.00
2023-03-26T02:26:13.811Z,93982.00
2023-03-26T02:30:13.761Z,93978.00
2023-03-26T02:34:13.757Z,93972.00
2023-03-26T02:38:13.688Z,93976.00
2023-03-26T02:42:13.649Z,93974.00
2023-03-26T02:46:13.694Z,93976.00
2023-03-26T02:50:13.578Z,93980.00
2023-03-26T02:54:13.543Z,93970.00
2023-03-26T02:58:13.501Z,93962.00
2023-03-26T03:02:13.538Z,93962.00
2023-03-26T03:06:13.447Z,93962.00
2023-03-26T03:10:13.370Z,93948.00
2023-03-26T03:14:13.349Z,93940.00
2023-03-26T03:18:13.318Z,93937.00
2023-03-26T03:22:13.273Z,93933.00
2023-03-26T03:26:13.232Z,93923.00
2023-03-26T03:30:13.250Z,93915.00
2023-03-26T03:34:13.266Z,93913.00
2023-03-26T03:38:13.317Z,93917.00
2023-03-26T03:42:13.269Z,93919.00
2023-03-26T03:46:13.281Z,93913.00
2023-03-26T03:50:13.227Z,93913.00
2023-03-26T03:54:13.181Z,93905.00
2023-03-26T03:58:13.119Z,93907.00
2023-03-26T04:02:13.108Z,93907.00
2023-03-26T04:06:13.059Z,93899.00
2023-03-26T04:10:13.018Z,93903.00
2023-03-26T04:14:12.990Z,93899.00
2023-03-26T04:18:12.921Z,93897.00
2023-03-26T04:22:12.888Z,93895.00
2023-03-26T04:26:12.870Z,93888.00
2023-03-26T04:30:12.826Z,93886.00
2023-03-26T04:34:12.791Z,93880.00
2023-03-26T04:38:12.810Z,93880.00
2023-03-26T04:42:12.814Z,93864.00
2023-03-26T04:46:12.872Z,93852.00
2023-03-26T04:50:12.917Z,93846.00
2023-03-26T04:54:13.008Z,93839.00
2023-03-26T04:58:12.953Z,93833.00
2023-03-26T05:02:13.057Z,93827.00
2023-03-26T05:06:13.063Z,93831.00
2023-03-26T05:10:13.125Z,93831.00
2023-03-26T05:14:13.147Z,93845.00
2023-03-26T05:18:13.181Z,93846.00
2023-03-26T05:22:13.241Z,93843.00
2023-03-26T05:26:13.335Z,93843.00
2023-03-26T05:30:13.389Z,93829.00
2023-03-26T05:34:13.445Z,93833.00
2023-03-26T05:38:13.479Z,93829.00
2023-03-26T05:42:13.484Z,93815.00
2023-03-26T05:46:13.545Z,93805.00
2023-03-26T05:50:13.685Z,93801.00
2023-03-26T05:54:13.685Z,93794.00
2023-03-26T05:58:13.686Z,93786.00
2023-03-26T06:02:13.741Z,93798.00
2023-03-26T06:06:13.709Z,93788.00
2023-03-26T06:10:18.140Z,93788.00
2023-03-26T06:14:14.616Z,93790.00
2023-03-26T06:18:13.706Z,93786.00
2023-03-26T06:22:13.599Z,93782.00
2023-03-26T06:26:13.660Z,93782.00
2023-03-26T06:30:13.661Z,93782.00
2023-03-26T06:34:13.721Z,93782.00
2023-03-26T06:38:13.681Z,93778.00
2023-03-26T06:42:13.709Z,93766.00
2023-03-26T06:46:13.757Z,93747.00
2023-03-26T06:50:13.737Z,93747.00
2023-03-26T06:54:13.683Z,93735.00
2023-03-26T06:58:13.654Z,93725.00
2023-03-26T07:02:13.617Z,93711.00
2023-03-26T07:06:13.589Z,93699.00
2023-03-26T07:10:13.578Z,93686.00
2023-03-26T07:14:13.499Z,93684.00
2023-03-26T07:18:13.464Z,93680.00
2023-03-26T07:22:13.423Z,93684.00
2023-03-26T07:26:13.394Z,93692.00
2023-03-26T07:30:13.357Z,93697.00
2023-03-26T07:34:13.314Z,93696.00
2023-03-26T07:38:13.274Z,93682.00
2023-03-26T07:42:13.455Z,93668.00
2023-03-26T07:46:13.627Z,93649.00
2023-03-26T07:50:13.757Z,93629.00
2023-03-26T07:54:13.916Z,93610.00
2023-03-26T07:58:14.018Z,93586.00
2023-03-26T08:02:14.144Z,93574.00
2023-03-26T08:06:14.293Z,93565.00
2023-03-26T08:10:14.397Z,93559.00
2023-03-26T08:14:14.510Z,93555.00
2023-03-26T08:18:14.616Z,93557.00
2023-03-26T08:22:14.708Z,93533.00
2023-03-26T08:26:14.800Z,93525.00
2023-03-26T08:30:14.882Z,93511.00
2023-03-26T08:34:14.883Z,93513.00
2023-03-26T08:38:14.891Z,93508.00
2023-03-26T08:42:14.884Z,93500.00
2023-03-26T08:46:14.961Z,93500.00
2023-03-26T08:50:14.937Z,93494.00
2023-03-26T08:54:14.922Z,93498.00
2023-03-26T08:58:14.895Z,93498.00
2023-03-26T09:02:14.923Z,93496.00
2023-03-26T09:06:14.949Z,93508.00
2023-03-26T09:10:15.062Z,93515.00
2023-03-26T09:14:15.053Z,93517.00
2023-03-26T09:18:15.090Z,93523.00
2023-03-26T09:22:15.165Z,93513.00
2023-03-26T09:26:15.218Z,93508.00
2023-03-26T09:30:15.298Z,93500.00
2023-03-26T09:34:15.372Z,93490.00
2023-03-26T09:38:15.448Z,93480.00
2023-03-26T09:42:15.523Z,93474.00
2023-03-26T09:46:15.605Z,93451.00
2023-03-26T09:50:15.647Z,93431.00
2023-03-26T09:54:15.644Z,93425.00
2023-03-26T09:58:15.661Z,93419.00
2023-03-26T10:02:15.698Z,93417.00
2023-03-26T10:06:15.737Z,93408.00
2023-03-26T10:10:15.777Z,93406.00
2023-03-26T10:14:15.867Z,93402.00
2023-03-26T10:18:27.090Z,93408.00
2023-03-26T10:22:16.826Z,93408.00
2023-03-26T10:26:15.816Z,93410.00
2023-03-26T10:30:15.808Z,93417.00
2023-03-26T10:34:19.408Z,93416.00
2023-03-26T10:38:16.679Z,93416.00
2023-03-26T10:42:15.674Z,93406.00
2023-03-26T10:46:15.674Z,93408.00
2023-03-26T10:50:22.671Z,93400.00
2023-03-26T10:54:16.533Z,93400.00
2023-03-26T10:58:15.477Z,93400.00
2023-03-26T11:02:15.442Z,93396.00
2023-03-26T11:06:15.402Z,93392.00
2023-03-26T11:10:15.455Z,93386.00
2023-03-26T11:14:24.433Z,93382.00
2023-03-26T11:18:16.535Z,93382.00
2023-03-26T11:22:15.443Z,93388.00
2023-03-26T11:26:15.419Z,93396.00
2023-03-26T11:30:15.360Z,93396.00
2023-03-26T11:34:15.339Z,93378.00
2023-03-26T11:38:15.406Z,93374.00
2023-03-26T11:42:15.460Z,93374.00
2023-03-26T11:46:15.534Z,93372.00
2023-03-26T11:50:15.562Z,93367.00
2023-03-26T11:54:15.633Z,93367.00
2023-03-26T11:58:15.680Z,93355.00
2023-03-26T12:02:15.795Z,93345.00
2023-03-26T12:06:15.825Z,93339.00
2023-03-26T12:10:18.447Z,93331.00
2023-03-26T12:14:15.892Z,93324.00
2023-03-26T12:18:15.932Z,93322.00
2023-03-26T12:22:15.792Z,93325.00
2023-03-26T12:26:15.750Z,93327.00
2023-03-26T12:30:15.709Z,93333.00
2023-03-26T12:34:15.675Z,93353.00
2023-03-26T12:38:15.664Z,93353.00
2023-03-26T12:43:40.420Z,93349.00
2023-03-26T12:47:55.116Z,93376.00
2023-03-26T12:50:16.518Z,93378.00
2023-03-26T12:54:15.456Z,93378.00
2023-03-26T12:58:15.480Z,93367.00
2023-03-26T13:02:15.411Z,93370.00
2023-03-26T13:06:15.359Z,93367.00
2023-03-26T13:10:15.329Z,93372.00
2023-03-26T13:14:15.301Z,93353.00
2023-03-26T13:18:15.414Z,93347.00
2023-03-26T13:22:15.592Z,93343.00
2023-03-26T13:26:15.780Z,93345.00
2023-03-26T13:30:15.992Z,93343.00
2023-03-26T13:34:16.209Z,93339.00
2023-03-26T13:38:16.408Z,93333.00
2023-03-26T13:42:16.596Z,93335.00
2023-03-26T13:46:16.842Z,93333.00
2023-03-26T13:50:17.039Z,93329.00
2023-03-26T13:54:17.241Z,93327.00
2023-03-26T13:58:17.442Z,93325.00
2023-03-26T14:02:17.642Z,93320.00
2023-03-26T14:06:17.852Z,93335.00
2023-03-26T14:10:18.072Z,93339.00
2023-03-26T14:14:18.280Z,93341.00
2023-03-26T14:18:18.572Z,93337.00
2023-03-26T14:22:18.736Z,93339.00
2023-03-26T14:26:18.948Z,93337.00
2023-03-26T14:30:18.922Z,93337.00
2023-03-26T14:34:18.875Z,93324.00
2023-03-26T14:38:18.839Z,93318.00
2023-03-26T14:42:18.786Z,93308.00
2023-03-26T14:46:18.822Z,93306.00
2023-03-26T14:50:18.717Z,93318.00
2023-03-26T14:54:18.673Z,93325.00
2023-03-26T14:58:18.652Z,93333.00
2023-03-26T15:02:18.709Z,93329.00
2023-03-26T15:06:18.681Z,93322.00
2023-03-26T15:10:18.659Z,93331.00
2023-03-26T15:14:18.614Z,93329.00
2023-03-26T15:18:18.575Z,93331.00
2023-03-26T15:22:18.520Z,93318.00
2023-03-26T15:26:18.504Z,93324.00
2023-03-26T15:30:18.441Z,93306.00
2023-03-26T15:34:18.440Z,93290.00
2023-03-26T15:38:18.381Z,93269.00
2023-03-26T15:42:18.345Z,93282.00
2023-03-26T15:46:18.410Z,93282.00
2023-03-26T15:50:18.567Z,93263.00
2023-03-26T15:54:18.514Z,93267.00
2023-03-26T15:58:18.490Z,93265.00
2023-03-26T16:02:18.460Z,93259.00
2023-03-26T16:06:18.420Z,93263.00
2023-03-26T16:10:18.368Z,93257.00
2023-03-26T16:14:18.360Z,93245.00
2023-03-26T16:18:18.310Z,93253.00
2023-03-26T16:22:18.259Z,93245.00
2023-03-26T16:26:18.214Z,93243.00
2023-03-26T16:30:20.653Z,93235.00
2023-03-26T16:34:18.146Z,93220.00
2023-03-26T16:38:18.109Z,93218.00
2023-03-26T16:42:18.218Z,93214.00
2023-03-26T16:46:18.115Z,93210.00
2023-03-26T16:50:18.017Z,93192.00
2023-03-26T16:54:17.979Z,93194.00
2023-03-26T16:58:17.955Z,93196.00
2023-03-26T17:02:17.893Z,93204.00
2023-03-26T17:06:17.856Z,93198.00
2023-03-26T17:10:17.827Z,93202.00
2023-03-26T17:14:17.773Z,93198.00
2023-03-26T17:18:17.849Z,93202.00
2023-03-26T17:22:17.716Z,93220.00
2023-03-26T17:26:17.707Z,93202.00
2023-03-26T17:30:17.642Z,93212.00
2023-03-26T17:34:17.630Z,93241.00
2023-03-26T17:38:17.612Z,93233.00
2023-03-26T17:42:17.547Z,93243.00
2023-03-26T17:46:17.589Z,93231.00
2023-03-26T17:50:17.471Z,93241.00
2023-03-26T17:54:17.429Z,93269.00
2023-03-26T17:58:17.415Z,93275.00
2023-03-26T18:02:17.390Z,93288.00
2023-03-26T18:06:17.348Z,93286.00
2023-03-26T18:10:17.289Z,93273.00
2023-03-26T18:14:17.244Z,93267.00
2023-03-26T18:18:17.193Z,93267.00
2023-03-26T18:22:17.185Z,93249.00
2023-03-26T18:26:17.125Z,93230.00
2023-03-26T18:30:17.097Z,93243.00
2023-03-26T18:34:17.035Z,93253.00
2023-03-26T18:38:17.060Z,93249.00
2023-03-26T18:42:22.388Z,93235.00
2023-03-26T18:46:18.010Z,93230.00
2023-03-26T18:50:16.965Z,93222.00
2023-03-26T18:54:16.961Z,93218.00
2023-03-26T18:58:16.986Z,93222.00
2023-03-26T19:02:17.026Z,93230.00
2023-03-26T19:06:16.919Z,93235.00
2023-03-26T19:10:16.881Z,93247.00
2023-03-26T19:14:17.163Z,93253.00
2023-03-26T19:18:16.799Z,93253.00
2023-03-26T19:22:16.753Z,93275.00
2023-03-26T19:26:16.730Z,93271.00
2023-03-26T19:30:16.660Z,93271.00
2023-03-26T19:34:16.676Z,93271.00
2023-03-26T19:38:16.587Z,93275.00
2023-03-26T19:42:16.542Z,93275.00
2023-03-26T19:46:16.524Z,93269.00
2023-03-26T19:50:16.500Z,93267.00
2023-03-26T19:54:16.467Z,93253.00
2023-03-26T19:58:16.420Z,93251.00
2023-03-26T20:02:16.428Z,93241.00
2023-03-26T20:06:16.354Z,93255.00
2023-03-26T20:10:16.324Z,93249.00
2023-03-26T20:14:16.354Z,93247.00
2023-03-26T20:18:16.307Z,93249.00
2023-03-26T20:22:16.321Z,93249.00
2023-03-26T20:26:16.336Z,93259.00
2023-03-26T20:30:19.218Z,93257.00
2023-03-26T20:34:17.369Z,93249.00
2023-03-26T20:38:17.072Z,93251.00
2023-03-26T20:42:16.270Z,93253.00
2023-03-26T20:46:16.245Z,93251.00
2023-03-26T20:50:16.135Z,93251.00
2023-03-26T20:54:16.110Z,93249.00
2023-03-26T20:58:16.072Z,93247.00
2023-03-26T21:02:16.058Z,93249.00
2023-03-26T21:06:16.000Z,93251.00
2023-03-26T21:10:15.965Z,93251.00
2023-03-26T21:14:15.905Z,93255.00
2023-03-26T21:18:15.884Z,93257.00
2023-03-26T21:22:15.842Z,93255.00
2023-03-26T21:26:15.797Z,93255.00
2023-03-26T21:30:15.781Z,93253.00
2023-03-26T21:34:15.726Z,93243.00
2023-03-26T21:38:15.682Z,93237.00
2023-03-26T21:42:15.640Z,93235.00
2023-03-26T21:46:15.682Z,93235.00
2023-03-26T21:50:15.592Z,93235.00
2023-03-26T21:54:15.537Z,93239.00
2023-03-26T21:58:15.491Z,93239.00
2023-03-26T22:02:15.441Z,93241.00
2023-03-26T22:06:15.414Z,93239.00
2023-03-26T22:10:15.468Z,93245.00
2023-03-26T22:14:15.482Z,93247.00
2023-03-26T22:18:15.553Z,93237.00
2023-03-26T22:22:15.635Z,93228.00
2023-03-26T22:26:15.693Z,93233.00
2023-03-26T22:30:15.740Z,93233.00
2023-03-26T22:34:15.808Z,93230.00
2023-03-26T22:38:15.838Z,93226.00
2023-03-26T22:42:15.945Z,93224.00
2023-03-26T22:46:16.174Z,93220.00
2023-03-26T22:50:16.156Z,93222.00
2023-03-26T22:54:16.166Z,93218.00
2023-03-26T22:58:16.180Z,93214.00
2023-03-26T23:02:16.152Z,93214.00
2023-03-26T23:06:16.136Z,93208.00
2023-03-26T23:10:16.083Z,93202.00
2023-03-26T23:14:16.077Z,93210.00
2023-03-26T23:18:16.008Z,93212.00
2023-03-26T23:22:15.952Z,93212.00
2023-03-26T23:26:15.928Z,93208.00
2023-03-26T23:30:15.894Z,93204.00
2023-03-26T23:34:15.890Z,93204.00
2023-03-26T23:38:15.827Z,93198.00
2023-03-26T23:42:15.776Z,93194.00
2023-03-26T23:46:16.781Z,93186.00
2023-03-26T23:50:15.713Z,93190.00
2023-03-26T23:54:15.721Z,93192.00
2023-03-26T23:58:15.688Z,93190.00
